Weather observations for the past three days for
Mercury, Desert Rock Airport
| Date | Time (pdt) | Wind (mph) | Vis. (mi.) | Weather | Sky Cond. | Temperature (ºF) | Relative Humidity | Wind Chill (°F) | Heat Index (°F) | Pressure | Precipitation (in) | ||||||
|---|---|---|---|---|---|---|---|---|---|---|---|---|---|---|---|---|---|
| Air | Dwpt | 6 hour | altimeter (in) | sea level (mb) | 1 hr | 3 hr | 6 hr | ||||||||||
| Max. | Min. | ||||||||||||||||
| 03 | 12:53 | S 21 G 32 | 10.00 | Fair and Breezy | CLR | 86 | 28.9 | 13% | 83 | 29.89 | 1007.3 | ||||||
| 03 | 11:53 | S 23 G 31 | 10.00 | Fair and Breezy | CLR | 82 | 28.9 | 14% | 80 | 29.92 | 1008.5 | ||||||
| 03 | 10:53 | S 18 | 10.00 | Fair | CLR | 80.1 | 30.9 | 80.1 | 66.9 | 17% | 78 | 29.94 | 1009.1 | ||||
| 03 | 09:53 | SW 17 G 23 | 10.00 | Fair | CLR | 77 | 32 | 19% | 77 | 29.94 | 1009.3 | ||||||
| 03 | 08:53 | SW 8 G 20 | 10.00 | Fair | CLR | 73 | 33.1 | 23% | 29.94 | 1009.5 | |||||||
| 03 | 07:53 | SW 6 | 10.00 | Fair | CLR | 71.1 | 33.1 | 25% | 29.93 | 1009.1 | |||||||
| 03 | 06:53 | S 8 G 20 | 10.00 | Fair | CLR | 69.1 | 32 | 25% | 29.92 | 1008.6 | |||||||
| 03 | 05:53 | S 9 | 10.00 | Fair | CLR | 66.9 | 30.9 | 26% | 29.91 | 1008.3 | |||||||
| 03 | 04:53 | S 6 | 10.00 | Fair | CLR | 68 | 28.9 | 77 | 66.9 | 23% | 29.91 | 1008.0 | |||||
| 03 | 03:53 | Vrbl 3 | 10.00 | Fair | CLR | 68 | 27 | 21% | 29.9 | 1007.8 | |||||||
| 03 | 02:53 | S 16 | 10.00 | Fair | CLR | 73 | 25 | 17% | 29.9 | 1007.7 | |||||||
| 03 | 01:53 | S 18 G 29 | 10.00 | Fair | CLR | 73.9 | 24.1 | 15% | 29.91 | 1007.9 | |||||||
| 03 | 00:53 | S 10 | 10.00 | Fair | CLR | 73.9 | 19.9 | 13% | 29.91 | 1008.2 | |||||||
| 02 | 23:53 | S 14 G 24 | 10.00 | Fair | CLR | 75 | 18 | 11% | 75 | 29.91 | 1008.1 | ||||||
| 02 | 22:53 | S 16 G 24 | 10.00 | Fair | CLR | 77 | 15.1 | 87.1 | 77 | 9% | 76 | 29.9 | 1007.8 | ||||
| 02 | 21:53 | S 12 G 24 | 10.00 | Fair | CLR | 79 | 10 | 7% | 77 | 29.9 | 1007.8 | ||||||
| 02 | 20:53 | S 13 G 23 | 10.00 | Fair | CLR | 79 | 7 | 6% | 77 | 29.91 | 1008.0 | ||||||
| 02 | 19:53 | S 20 G 35 | 10.00 | Fair | CLR | 82 | 3 | 5% | 80 | 29.89 | 1007.4 | ||||||
| 02 | 18:53 | SE 21 G 29 | 10.00 | Fair and Breezy | CLR | 82.9 | 3 | 4% | 80 | 29.88 | 1007.3 | ||||||
| 02 | 17:53 | S 22 G 30 | 10.00 | Fair and Breezy | CLR | 86 | 6.1 | 5% | 83 | 29.89 | 1007.4 | ||||||
| 02 | 16:53 | S 24 G 33 | 10.00 | Fair and Breezy | CLR | 87.1 | 8.1 | 89.1 | 82 | 5% | 84 | 29.9 | 1007.5 | ||||
| 02 | 15:53 | S 23 G 35 | 10.00 | Fair and Breezy | CLR | 88 | 8.1 | 5% | 85 | 29.91 | 1007.9 | ||||||
| 02 | 14:53 | S 23 G 36 | 10.00 | Fair and Breezy | CLR | 88 | 6.1 | 4% | 85 | 29.93 | 1008.5 | ||||||
| 02 | 13:53 | S 23 G 43 | 10.00 | Fair and Breezy | CLR | 87.1 | 6.1 | 4% | 84 | 29.93 | 1008.7 | ||||||
| 02 | 12:53 | S 23 G 41 | 10.00 | Fair and Breezy | CLR | 84.9 | 7 | 5% | 82 | 29.96 | 1009.6 | ||||||
| 02 | 11:53 | S 25 G 36 | 10.00 | Fair and Breezy | CLR | 84.9 | 10 | 6% | 82 | 29.98 | 1010.5 | ||||||
| 02 | 10:53 | S 18 G 32 | 10.00 | Fair | CLR | 82.9 | 10 | 82.9 | 71.1 | 6% | 80 | 30 | 1011.0 | ||||
| 02 | 09:53 | S 20 G 30 | 10.00 | Fair | CLR | 80.1 | 10.9 | 7% | 78 | 29.99 | 1010.7 | ||||||
| 02 | 08:53 | S 17 G 26 | 10.00 | Fair | CLR | 78.1 | 14 | 9% | 77 | 29.99 | 1011.0 | ||||||
| 02 | 07:53 | S 16 G 26 | 10.00 | Fair | CLR | 75 | 12.9 | 9% | 74 | 29.98 | 1010.5 | ||||||
| 02 | 06:53 | S 16 | 10.00 | Fair | CLR | 73 | 12.9 | 10% | 29.96 | 1009.7 | |||||||
| 02 | 05:53 | SE 9 | 10.00 | Fair | CLR | 71.1 | 14 | 11% | 29.93 | 1008.8 | |||||||
| 02 | 04:53 | SE 16 G 25 | 10.00 | Fair | CLR | 73 | 12.9 | 77 | 73 | 10% | 29.9 | 1007.7 | |||||
| 02 | 03:53 | SE 13 G 25 | 10.00 | Fair | CLR | 73.9 | 17.1 | 11% | 29.9 | 1007.5 | |||||||
| 02 | 02:53 | SE 13 G 26 | 10.00 | Fair | CLR | 73.9 | 19 | 12% | 29.92 | 1008.4 | |||||||
| 02 | 01:53 | SE 21 | 10.00 | Fair and Breezy | CLR | 75 | 21 | 13% | 75 | 29.92 | 1008.3 | ||||||
| 02 | 00:53 | SE 16 G 25 | 10.00 | Fair | CLR | 75 | 23 | 14% | 75 | 29.93 | 1008.7 | ||||||
| 01 | 23:53 | SE 10 | 10.00 | Fair | CLR | 75.9 | 19 | 12% | 75 | 29.93 | 1008.6 | ||||||
| 01 | 22:53 | S 13 | 10.00 | Fair | CLR | 77 | 16 | 88 | 75.9 | 10% | 76 | 29.93 | 1008.5 | ||||
| 01 | 21:53 | SE 6 | 10.00 | Fair | CLR | 77 | 16 | 10% | 76 | 29.93 | 1008.7 | ||||||
| 01 | 20:53 | S 7 | 10.00 | Fair | CLR | 78.1 | 12.9 | 8% | 77 | 29.91 | 1008.2 | ||||||
| 01 | 19:53 | S 13 | 10.00 | Fair | CLR | 81 | 18 | 9% | 79 | 29.89 | 1007.4 | ||||||
| 01 | 18:53 | S 22 G 36 | 10.00 | Fair and Breezy | CLR | 84 | 18 | 8% | 81 | 29.89 | 1007.6 | ||||||
| 01 | 17:53 | S 21 G 36 | 10.00 | Fair and Breezy | CLR | 87.1 | 18 | 8% | 84 | 29.9 | 1007.8 | ||||||
| 01 | 16:53 | S 17 G 33 | 10.00 | Fair | CLR | 88 | 17.1 | 90 | 84 | 7% | 84 | 29.91 | 1008.0 | ||||
| 01 | 15:53 | SE 21 G 33 | 10.00 | Fair and Breezy | CLR | 89.1 | 19.9 | 8% | 85 | 29.92 | 1008.1 | ||||||
| 01 | 14:53 | S 22 G 31 | 10.00 | Fair and Breezy | CLR | 88 | 23 | 9% | 84 | 29.94 | 1008.6 | ||||||
| 01 | 13:53 | S 20 G 30 | 10.00 | Fair | CLR | 87.1 | 24.1 | 10% | 84 | 29.96 | 1009.3 | ||||||
| 01 | 12:53 | S 16 G 25 | 10.00 | Fair | CLR | 87.1 | 23 | 9% | 84 | 29.98 | 1010.1 | ||||||
| 01 | 11:53 | S 23 G 35 | 10.00 | Fair and Breezy | CLR | 86 | 24.1 | 10% | 83 | 30 | 1011.1 | ||||||
| 01 | 10:53 | S 17 G 26 | 10.00 | Fair | CLR | 84 | 19.9 | 84 | 69.1 | 9% | 81 | 30.02 | 1011.5 | ||||
| 01 | 08:53 | S 12 G 24 | 10.00 | Fair | CLR | 80.1 | 19 | 10% | 78 | 30 | 1010.7 | ||||||
| 01 | 07:53 | SE 15 G 26 | 10.00 | Fair | CLR | 77 | 21 | 12% | 76 | 29.98 | 1010.3 | ||||||
| 01 | 06:53 | S 10 | 10.00 | Fair | CLR | 72 | 18 | 13% | 29.98 | 1010.5 | |||||||
| 01 | 05:53 | S 12 | 10.00 | Fair | CLR | 73 | 16 | 11% | 29.95 | 1009.3 | |||||||
| 01 | 04:53 | SE 16 G 23 | 10.00 | Fair | CLR | 73.9 | 19.9 | 80.1 | 72 | 13% | 29.94 | 1008.8 | |||||
| 01 | 03:53 | SE 15 G 21 | 10.00 | Fair | CLR | 73.9 | 21.9 | 14% | 29.95 | 1008.9 | |||||||
| 01 | 02:53 | SW 12 | 10.00 | Fair | CLR | 75 | 21.9 | 14% | 75 | 29.94 | 1008.6 | ||||||
| 01 | 01:53 | SW 15 G 24 | 10.00 | Fair | CLR | 75.9 | 21 | 13% | 76 | 29.94 | 1008.5 | ||||||
| 01 | 00:53 | Calm | 10.00 | Fair | CLR | 78.1 | 24.1 | 13% | 77 | 29.93 | 0.0 | ||||||
| 31 | 23:53 | Calm | 10.00 | Fair | CLR | 75.9 | 24.1 | 14% | 76 | 29.93 | 0.0 | ||||||
| 31 | 22:53 | S 5 | 10.00 | Fair | CLR | 77 | 25 | 91.9 | 77 | 14% | 76 | 29.93 | 1008.3 | ||||
| 31 | 21:53 | SW 7 | 10.00 | Fair | CLR | 80.1 | 24.1 | 13% | 78 | 29.93 | 1008.1 | ||||||
| 31 | 20:53 | S 13 G 18 | 10.00 | Fair | CLR | 82.9 | 28.9 | 14% | 80 | 29.9 | 1007.1 | ||||||
| 31 | 19:53 | SE 16 G 23 | 10.00 | Fair | CLR | 86 | 39 | 19% | 83 | 29.87 | 1006.7 | ||||||
| 31 | 18:53 | S 18 G 25 | 10.00 | Fair | CLR | 88 | 37.9 | 17% | 84 | 29.87 | 1006.5 | ||||||
| 31 | 17:53 | S 20 G 31 | 10.00 | A Few Clouds | FEW110 | 91 | 37 | 15% | 87 | 29.87 | 1006.3 | ||||||
| 31 | 16:53 | S 20 G 31 | 10.00 | Fair | CLR | 91.9 | 37 | 93.9 | 86 | 14% | 88 | 29.88 | 1006.3 | ||||
| 31 | 15:53 | SE 21 G 41 | 10.00 | Fair and Breezy | CLR | 93 | 36 | 13% | 89 | 29.89 | 1006.8 | ||||||
| 31 | 14:53 | S 20 G 32 | 10.00 | Fair | CLR | 93.9 | 37 | 14% | 89 | 29.91 | 1007.2 | ||||||
| 31 | 13:53 | SE 23 G 37 | 10.00 | Fair and Breezy | CLR | 93 | 37.9 | 14% | 89 | 29.92 | 1008.0 | ||||||
| Date | Time (pdt) | Wind (mph) | Vis. (mi.) | Weather | Sky Cond. | Air | Dwpt | Max. | Min. | Relative Humidity | Wind Chill (°F) | Heat Index (°F) | altimeter (in) | sea level (mb) | 1 hr | 3 hr | 6 hr |
| 6 hour | |||||||||||||||||
| Temperature (ºF) | Pressure | Precipitation (in) | |||||||||||||||